createdAt,value
2017-02-28T00:00:15.176Z,0
2017-02-28T00:01:28.293Z,0
2017-02-28T00:02:41.359Z,0
2017-02-28T00:03:54.425Z,0
2017-02-28T00:05:07.479Z,0
2017-02-28T00:06:20.530Z,0
2017-02-28T00:07:33.198Z,0
2017-02-28T00:08:45.884Z,0
2017-02-28T00:09:59.000Z,0
2017-02-28T00:11:12.097Z,0
2017-02-28T00:12:24.781Z,0
2017-02-28T00:13:37.824Z,0
2017-02-28T00:14:50.897Z,0
2017-02-28T00:16:03.972Z,0
2017-02-28T00:17:16.641Z,0
2017-02-28T00:18:29.708Z,0
2017-02-28T00:19:42.793Z,0
2017-02-28T00:20:55.871Z,0
2017-02-28T00:22:08.526Z,0
2017-02-28T00:23:21.191Z,0
2017-02-28T00:24:33.904Z,0
2017-02-28T00:25:46.972Z,0
2017-02-28T00:27:00.053Z,0
2017-02-28T00:28:13.126Z,0
2017-02-28T00:29:26.163Z,0
2017-02-28T00:30:39.239Z,0
2017-02-28T00:31:52.305Z,0
2017-02-28T00:33:05.002Z,0
2017-02-28T00:34:18.105Z,0
2017-02-28T00:35:31.218Z,0
2017-02-28T00:36:44.269Z,0
2017-02-28T00:37:57.392Z,0
2017-02-28T00:39:10.502Z,0
2017-02-28T00:40:23.560Z,0
2017-02-28T00:41:36.245Z,0
2017-02-28T00:42:49.298Z,0
2017-02-28T00:44:02.373Z,0
2017-02-28T00:45:15.406Z,0
2017-02-28T00:46:27.762Z,0
2017-02-28T00:47:40.431Z,0
2017-02-28T00:48:53.502Z,0
2017-02-28T00:50:06.573Z,0
2017-02-28T00:51:19.646Z,0
2017-02-28T00:52:31.968Z,0
2017-02-28T00:53:45.069Z,0
2017-02-28T00:54:58.188Z,0
2017-02-28T00:56:11.230Z,0
2017-02-28T00:57:23.901Z,0
2017-02-28T00:58:36.950Z,0
2017-02-28T00:59:50.016Z,0
2017-02-28T01:01:03.114Z,0
2017-02-28T01:02:15.787Z,0
2017-02-28T01:03:28.856Z,0
2017-02-28T01:04:41.945Z,0
2017-02-28T01:05:55.316Z,0
2017-02-28T01:07:08.062Z,0
2017-02-28T01:08:21.180Z,0
2017-02-28T01:09:34.238Z,0
2017-02-28T01:10:47.288Z,0
2017-02-28T01:12:00.383Z,0
2017-02-28T01:13:13.477Z,0
2017-02-28T01:14:26.541Z,0
2017-02-28T01:15:39.612Z,0
2017-02-28T01:16:52.685Z,0
2017-02-28T01:18:05.746Z,0
2017-02-28T01:19:18.820Z,0
2017-02-28T01:20:31.903Z,0
2017-02-28T01:21:44.966Z,0
2017-02-28T01:22:57.637Z,0
2017-02-28T01:24:10.334Z,0
2017-02-28T01:25:23.382Z,0
2017-02-28T01:26:36.454Z,0
2017-02-28T01:27:49.538Z,0
2017-02-28T01:29:02.600Z,0
2017-02-28T01:30:15.315Z,0
2017-02-28T01:31:28.031Z,0
2017-02-28T01:32:40.774Z,0
2017-02-28T01:33:53.854Z,0
2017-02-28T01:35:06.571Z,0
2017-02-28T01:36:19.659Z,0
2017-02-28T01:37:32.381Z,0
2017-02-28T01:38:45.438Z,0
2017-02-28T01:39:58.556Z,0
2017-02-28T01:41:11.598Z,0
2017-02-28T01:42:24.693Z,0
2017-02-28T01:43:37.395Z,0
2017-02-28T01:44:50.489Z,0
2017-02-28T01:46:03.552Z,0
2017-02-28T01:47:16.701Z,0
2017-02-28T01:48:29.405Z,0
2017-02-28T01:49:42.071Z,0
2017-02-28T01:50:55.142Z,0
2017-02-28T01:52:08.206Z,0
2017-02-28T01:53:21.285Z,0
2017-02-28T01:54:33.972Z,0
2017-02-28T01:55:47.054Z,0
2017-02-28T01:57:00.105Z,0
2017-02-28T01:58:13.164Z,0
2017-02-28T01:59:26.231Z,0
2017-02-28T02:00:38.951Z,0
2017-02-28T02:01:52.033Z,0
2017-02-28T02:03:05.093Z,0
2017-02-28T02:04:18.228Z,0
2017-02-28T02:05:31.299Z,0
2017-02-28T02:06:44.396Z,0
2017-02-28T02:07:57.489Z,0
2017-02-28T02:09:10.551Z,0
2017-02-28T02:10:23.625Z,0
2017-02-28T02:11:36.292Z,0
2017-02-28T02:12:49.422Z,0
2017-02-28T02:14:02.564Z,0
2017-02-28T02:15:15.634Z,0
2017-02-28T02:16:28.697Z,0
2017-02-28T02:17:41.804Z,0
2017-02-28T02:18:54.874Z,0
2017-02-28T02:20:07.560Z,0
2017-02-28T02:21:20.889Z,0
2017-02-28T02:22:33.989Z,0
2017-02-28T02:23:47.055Z,0
2017-02-28T02:25:00.126Z,0
2017-02-28T02:26:12.802Z,0
2017-02-28T02:27:25.878Z,0
2017-02-28T02:28:38.959Z,0
2017-02-28T02:29:52.015Z,0
2017-02-28T02:31:05.116Z,0
2017-02-28T02:32:18.202Z,0
2017-02-28T02:33:30.897Z,0
2017-02-28T02:34:43.969Z,0
2017-02-28T02:35:56.334Z,0
2017-02-28T02:37:09.412Z,0
2017-02-28T02:38:22.098Z,0
2017-02-28T02:39:35.155Z,0
2017-02-28T02:40:48.226Z,0
2017-02-28T02:42:01.344Z,0
2017-02-28T02:43:14.467Z,0
2017-02-28T02:44:27.580Z,0
2017-02-28T02:45:40.683Z,0
2017-02-28T02:46:53.751Z,0
2017-02-28T02:48:06.825Z,0
2017-02-28T02:49:19.922Z,0
2017-02-28T02:50:32.990Z,0
2017-02-28T02:51:45.741Z,0
2017-02-28T02:52:58.823Z,0
2017-02-28T02:54:11.522Z,0
2017-02-28T02:55:24.217Z,0
2017-02-28T02:56:37.264Z,0
2017-02-28T02:57:50.359Z,0
2017-02-28T02:59:03.427Z,0
2017-02-28T03:00:15.731Z,0
2017-02-28T03:01:28.783Z,0
2017-02-28T03:02:41.851Z,0
2017-02-28T03:03:54.947Z,0
2017-02-28T03:05:07.914Z,0
2017-02-28T03:06:20.614Z,0
2017-02-28T03:07:32.931Z,0
2017-02-28T03:08:46.027Z,0
2017-02-28T03:09:59.098Z,0
2017-02-28T03:11:12.172Z,0
2017-02-28T03:12:24.882Z,0
2017-02-28T03:13:38.010Z,0
2017-02-28T03:14:51.084Z,0
2017-02-28T03:16:04.173Z,0
2017-02-28T03:17:17.231Z,0
2017-02-28T03:18:29.548Z,0
2017-02-28T03:19:42.218Z,0
2017-02-28T03:20:55.288Z,0
2017-02-28T03:22:08.338Z,0
2017-02-28T03:23:21.430Z,0
2017-02-28T03:24:34.497Z,0
2017-02-28T03:25:47.564Z,0
2017-02-28T03:27:00.918Z,0
2017-02-28T03:28:13.603Z,0
2017-02-28T03:29:26.314Z,0
2017-02-28T03:30:39.029Z,0
2017-02-28T03:31:51.705Z,0
2017-02-28T03:33:04.398Z,0
2017-02-28T03:34:17.481Z,0
2017-02-28T03:35:30.539Z,0
2017-02-28T03:36:43.630Z,0
2017-02-28T03:37:56.302Z,0
2017-02-28T03:39:09.355Z,0
2017-02-28T03:40:22.435Z,0
2017-02-28T03:41:35.098Z,0
2017-02-28T03:42:48.157Z,0
2017-02-28T03:44:01.223Z,0
2017-02-28T03:45:14.294Z,0
2017-02-28T03:46:26.214Z,0
2017-02-28T03:47:39.285Z,0
2017-02-28T03:48:52.364Z,0
2017-02-28T03:50:05.045Z,0
2017-02-28T03:51:17.699Z,0
2017-02-28T03:52:30.768Z,0
2017-02-28T03:53:43.476Z,0
2017-02-28T03:54:56.568Z,0
2017-02-28T03:56:09.622Z,0
2017-02-28T03:57:22.689Z,0
2017-02-28T03:58:35.756Z,0
2017-02-28T03:59:48.823Z,0
2017-02-28T04:01:01.898Z,0
2017-02-28T04:02:15.002Z,0
2017-02-28T04:03:27.299Z,0
2017-02-28T04:04:40.336Z,0
2017-02-28T04:05:53.406Z,0
2017-02-28T04:07:06.481Z,0
2017-02-28T04:08:19.547Z,0
2017-02-28T04:09:32.223Z,0
2017-02-28T04:10:45.269Z,0
2017-02-28T04:11:58.364Z,0
2017-02-28T04:13:11.457Z,0
2017-02-28T04:14:24.505Z,0
2017-02-28T04:15:36.830Z,0
2017-02-28T04:16:49.903Z,0
2017-02-28T04:18:02.937Z,0
2017-02-28T04:19:15.633Z,0
2017-02-28T04:20:28.333Z,0
2017-02-28T04:21:41.403Z,0
2017-02-28T04:22:54.471Z,0
2017-02-28T04:24:07.147Z,0
2017-02-28T04:25:19.461Z,0
2017-02-28T04:26:32.141Z,0
2017-02-28T04:27:45.233Z,0
2017-02-28T04:28:58.307Z,0
2017-02-28T04:30:11.000Z,0
2017-02-28T04:31:23.722Z,0
2017-02-28T04:32:36.795Z,0
2017-02-28T04:33:49.534Z,0
2017-02-28T04:35:02.640Z,0
2017-02-28T04:36:15.722Z,0
2017-02-28T04:37:28.295Z,0
2017-02-28T04:38:40.596Z,0
2017-02-28T04:39:53.668Z,0
2017-02-28T04:41:06.734Z,0
2017-02-28T04:42:19.827Z,0
2017-02-28T04:43:32.506Z,0
2017-02-28T04:44:45.558Z,0
2017-02-28T04:45:58.693Z,0
2017-02-28T04:47:11.821Z,0
2017-02-28T04:48:24.521Z,0
2017-02-28T04:49:37.588Z,0
2017-02-28T04:50:50.656Z,0
2017-02-28T04:52:03.755Z,0
2017-02-28T04:53:16.418Z,0
2017-02-28T04:54:29.118Z,0
2017-02-28T04:55:41.436Z,0
2017-02-28T04:56:54.485Z,0
2017-02-28T04:58:07.537Z,0
2017-02-28T04:59:20.636Z,0
2017-02-28T05:00:33.743Z,0
2017-02-28T05:01:46.802Z,0
2017-02-28T05:02:59.866Z,0
2017-02-28T05:04:13.254Z,0
2017-02-28T05:05:26.307Z,0
2017-02-28T05:06:39.356Z,0
2017-02-28T05:07:52.442Z,0
2017-02-28T05:09:05.563Z,0
2017-02-28T05:10:18.612Z,0
2017-02-28T05:11:31.714Z,0
2017-02-28T05:12:44.800Z,0
2017-02-28T05:13:57.849Z,0
2017-02-28T05:15:10.178Z,0
2017-02-28T05:16:22.868Z,0
2017-02-28T05:17:35.972Z,0
2017-02-28T05:18:48.664Z,0
2017-02-28T05:20:01.386Z,0
2017-02-28T05:21:14.084Z,0
2017-02-28T05:22:27.179Z,0
2017-02-28T05:23:40.249Z,0
2017-02-28T05:24:53.296Z,0
2017-02-28T05:26:06.416Z,0
2017-02-28T05:27:19.113Z,0
2017-02-28T05:28:32.164Z,0
2017-02-28T05:29:44.918Z,0
2017-02-28T05:30:57.996Z,0
2017-02-28T05:32:11.310Z,0
2017-02-28T05:33:24.416Z,0
2017-02-28T05:34:37.468Z,0
2017-02-28T05:35:50.532Z,0
2017-02-28T05:37:03.577Z,0
2017-02-28T05:38:16.651Z,0
2017-02-28T05:39:29.696Z,0
2017-02-28T05:40:42.781Z,0
2017-02-28T05:41:55.864Z,0
2017-02-28T05:43:08.980Z,0
2017-02-28T05:44:22.077Z,0
2017-02-28T05:45:35.172Z,0
2017-02-28T05:46:47.869Z,0
2017-02-28T05:48:01.161Z,0
2017-02-28T05:49:14.260Z,0
2017-02-28T05:50:27.324Z,0
2017-02-28T05:51:40.377Z,0
2017-02-28T05:52:53.432Z,0
2017-02-28T05:54:06.501Z,0
2017-02-28T05:55:19.582Z,0
2017-02-28T05:56:32.640Z,5
2017-02-28T05:57:45.732Z,5
2017-02-28T05:58:59.020Z,5
2017-02-28T06:00:11.699Z,5
2017-02-28T06:01:24.411Z,5
2017-02-28T06:02:37.115Z,5
2017-02-28T06:03:50.164Z,5
2017-02-28T06:05:03.249Z,5
2017-02-28T06:06:15.957Z,5
2017-02-28T06:07:29.078Z,10
2017-02-28T06:08:42.144Z,10
2017-02-28T06:09:55.245Z,10
2017-02-28T06:11:08.308Z,15
2017-02-28T06:12:21.035Z,15
2017-02-28T06:13:34.108Z,20
2017-02-28T06:14:47.146Z,20
2017-02-28T06:16:00.274Z,25
2017-02-28T06:17:13.296Z,25
2017-02-28T06:18:25.968Z,25
2017-02-28T06:19:39.051Z,25
2017-02-28T06:20:52.095Z,25
2017-02-28T06:22:05.144Z,25
2017-02-28T06:23:17.466Z,25
2017-02-28T06:24:30.546Z,25
2017-02-28T06:25:43.608Z,25
2017-02-28T06:26:56.658Z,30
2017-02-28T06:28:09.358Z,30
2017-02-28T06:29:22.052Z,35
2017-02-28T06:30:35.150Z,40
2017-02-28T06:31:47.466Z,45
2017-02-28T06:33:00.569Z,45
2017-02-28T06:34:13.637Z,45
2017-02-28T06:35:25.979Z,45
2017-02-28T06:36:39.030Z,50
2017-02-28T06:37:52.092Z,50
2017-02-28T06:39:05.184Z,50
2017-02-28T06:40:18.263Z,50
2017-02-28T06:41:30.587Z,50
2017-02-28T06:42:43.258Z,50
2017-02-28T06:43:56.329Z,50
2017-02-28T06:45:09.396Z,45
2017-02-28T06:46:21.688Z,45
2017-02-28T06:47:34.791Z,50
2017-02-28T06:48:47.080Z,45
2017-02-28T06:50:00.133Z,50
2017-02-28T06:51:13.285Z,50
2017-02-28T06:52:25.197Z,55
2017-02-28T06:53:38.324Z,60
2017-02-28T06:54:50.994Z,60
2017-02-28T06:56:04.060Z,60
2017-02-28T06:57:17.155Z,60
2017-02-28T06:58:29.884Z,60
2017-02-28T06:59:42.652Z,70
2017-02-28T07:00:55.692Z,75
2017-02-28T07:02:08.788Z,70
2017-02-28T07:03:21.468Z,70
2017-02-28T07:04:34.123Z,70
2017-02-28T07:05:47.206Z,70
2017-02-28T07:07:00.273Z,80
2017-02-28T07:08:12.968Z,75
2017-02-28T07:09:25.667Z,70
2017-02-28T07:10:38.330Z,75
2017-02-28T07:11:51.434Z,75
2017-02-28T07:13:04.501Z,90
2017-02-28T07:14:17.566Z,105
2017-02-28T07:15:30.644Z,100
2017-02-28T07:16:43.314Z,110
2017-02-28T07:17:56.378Z,120
2017-02-28T07:19:09.401Z,135
2017-02-28T07:20:22.473Z,145
2017-02-28T07:21:35.825Z,145
2017-02-28T07:22:48.873Z,145
2017-02-28T07:24:01.944Z,135
2017-02-28T07:25:15.063Z,155
2017-02-28T07:26:28.139Z,160
2017-02-28T07:27:40.852Z,160
2017-02-28T07:28:53.929Z,150
2017-02-28T07:30:07.036Z,145
2017-02-28T07:31:20.093Z,160
2017-02-28T07:32:32.776Z,140
2017-02-28T07:33:45.509Z,100
2017-02-28T07:34:58.605Z,110
2017-02-28T07:36:11.652Z,135
2017-02-28T07:37:24.586Z,115
2017-02-28T07:38:37.635Z,125
2017-02-28T07:39:50.717Z,115
2017-02-28T07:41:03.423Z,115
2017-02-28T07:42:16.127Z,115
2017-02-28T07:43:28.817Z,120
2017-02-28T07:44:41.510Z,130
2017-02-28T07:45:54.619Z,155
2017-02-28T07:47:07.731Z,170
2017-02-28T07:48:20.803Z,165
2017-02-28T07:49:33.509Z,150
2017-02-28T07:50:46.569Z,150
2017-02-28T07:51:59.669Z,135
2017-02-28T07:53:12.385Z,135
2017-02-28T07:54:25.089Z,145
2017-02-28T07:55:38.159Z,165
2017-02-28T07:56:51.202Z,165
2017-02-28T07:58:04.275Z,175
2017-02-28T07:59:17.360Z,180
2017-02-28T08:00:30.039Z,180
2017-02-28T08:01:43.110Z,180
2017-02-28T08:02:56.199Z,175
2017-02-28T08:04:09.301Z,170
2017-02-28T08:05:22.418Z,165
2017-02-28T08:06:35.118Z,155
2017-02-28T08:07:48.192Z,150
2017-02-28T08:09:01.286Z,155
2017-02-28T08:10:13.959Z,170
2017-02-28T08:11:27.072Z,180
2017-02-28T08:12:40.125Z,195
2017-02-28T08:13:53.194Z,210
2017-02-28T08:15:06.222Z,230
2017-02-28T08:16:18.914Z,235
2017-02-28T08:17:31.989Z,230
2017-02-28T08:18:44.674Z,230
2017-02-28T08:19:57.793Z,245
2017-02-28T08:21:10.869Z,265
2017-02-28T08:22:23.956Z,275
2017-02-28T08:23:37.001Z,285
2017-02-28T08:24:49.687Z,295
2017-02-28T08:26:02.781Z,300
2017-02-28T08:27:15.475Z,295
2017-02-28T08:28:28.174Z,285
2017-02-28T08:29:41.242Z,285
2017-02-28T08:30:53.938Z,285
2017-02-28T08:32:07.010Z,275
2017-02-28T08:33:20.133Z,265
2017-02-28T08:34:33.217Z,260
2017-02-28T08:35:46.285Z,240
2017-02-28T08:36:58.592Z,225
2017-02-28T08:38:11.660Z,225
2017-02-28T08:39:24.714Z,260
2017-02-28T08:40:37.787Z,295
2017-02-28T08:41:50.480Z,300
2017-02-28T08:43:03.563Z,270
2017-02-28T08:44:16.239Z,275
2017-02-28T08:45:28.937Z,300
2017-02-28T08:46:41.626Z,330
2017-02-28T08:47:54.668Z,345
2017-02-28T08:49:07.342Z,335
2017-02-28T08:50:20.418Z,310
2017-02-28T08:51:33.546Z,315
2017-02-28T08:52:45.088Z,335
2017-02-28T08:53:58.177Z,350
2017-02-28T08:55:11.229Z,375
2017-02-28T08:56:24.303Z,400
2017-02-28T08:57:37.364Z,415
2017-02-28T08:58:50.047Z,425
2017-02-28T09:00:03.127Z,430
2017-02-28T09:01:15.828Z,425
2017-02-28T09:02:28.506Z,425
2017-02-28T09:03:41.573Z,430
2017-02-28T09:04:54.936Z,440
2017-02-28T09:06:07.665Z,445
2017-02-28T09:07:20.764Z,455
2017-02-28T09:08:33.507Z,450
2017-02-28T09:09:45.827Z,460
2017-02-28T09:10:58.925Z,465
2017-02-28T09:12:11.998Z,455
2017-02-28T09:13:25.117Z,440
2017-02-28T09:14:37.832Z,415
2017-02-28T09:15:50.898Z,410
2017-02-28T09:17:03.985Z,360
2017-02-28T09:18:17.124Z,350
2017-02-28T09:19:30.188Z,355
2017-02-28T09:20:43.266Z,360
2017-02-28T09:21:55.936Z,360
2017-02-28T09:23:08.982Z,370
2017-02-28T09:24:22.028Z,365
2017-02-28T09:25:35.153Z,375
2017-02-28T09:26:48.215Z,390
2017-02-28T09:28:01.274Z,410
2017-02-28T09:29:14.379Z,425
2017-02-28T09:30:26.709Z,425
2017-02-28T09:31:39.403Z,430
2017-02-28T09:32:52.167Z,435
2017-02-28T09:34:05.265Z,435
2017-02-28T09:35:17.993Z,455
2017-02-28T09:36:31.088Z,465
2017-02-28T09:37:44.237Z,480
2017-02-28T09:38:57.304Z,475
2017-02-28T09:40:10.004Z,475
2017-02-28T09:41:23.079Z,465
2017-02-28T09:42:36.396Z,450
2017-02-28T09:43:49.455Z,455
2017-02-28T09:45:02.508Z,460
2017-02-28T09:46:15.209Z,460
2017-02-28T09:47:28.277Z,485
2017-02-28T09:48:40.596Z,500
2017-02-28T09:49:53.663Z,500
2017-02-28T09:51:06.745Z,500
2017-02-28T09:52:19.826Z,495
2017-02-28T09:53:32.960Z,490
2017-02-28T09:54:45.677Z,490
2017-02-28T09:55:58.749Z,505
2017-02-28T09:57:11.844Z,520
2017-02-28T09:58:25.169Z,535
2017-02-28T09:59:38.230Z,545
2017-02-28T10:00:50.905Z,540
2017-02-28T10:02:03.960Z,535
2017-02-28T10:03:17.072Z,525
2017-02-28T10:04:30.135Z,520
2017-02-28T10:05:43.211Z,520
2017-02-28T10:06:56.305Z,520
2017-02-28T10:08:09.348Z,520
2017-02-28T10:09:22.424Z,520
2017-02-28T10:10:35.549Z,540
2017-02-28T10:11:48.643Z,580
2017-02-28T10:13:01.323Z,615
2017-02-28T10:14:14.464Z,610
2017-02-28T10:15:27.533Z,600
2017-02-28T10:16:39.835Z,580
2017-02-28T10:17:52.493Z,565
2017-02-28T10:19:05.569Z,595
2017-02-28T10:20:18.271Z,595
2017-02-28T10:21:31.332Z,545
2017-02-28T10:22:43.235Z,545
2017-02-28T10:23:55.548Z,590
2017-02-28T10:25:08.594Z,640
2017-02-28T10:26:21.672Z,675
2017-02-28T10:27:34.767Z,715
2017-02-28T10:28:47.864Z,750
2017-02-28T10:30:00.610Z,790
2017-02-28T10:31:12.936Z,770
2017-02-28T10:32:26.052Z,735
2017-02-28T10:33:38.370Z,665
2017-02-28T10:34:51.468Z,530
2017-02-28T10:36:04.565Z,450
2017-02-28T10:37:17.651Z,400
2017-02-28T10:38:30.312Z,310
2017-02-28T10:39:42.645Z,275
2017-02-28T10:40:55.712Z,290
2017-02-28T10:42:08.791Z,295
2017-02-28T10:43:21.845Z,390
2017-02-28T10:44:34.551Z,375
2017-02-28T10:45:46.879Z,285
2017-02-28T10:46:59.925Z,185
2017-02-28T10:48:12.991Z,160
2017-02-28T10:49:25.683Z,140
2017-02-28T10:50:38.732Z,185
2017-02-28T10:51:51.807Z,305
2017-02-28T10:53:04.874Z,525
2017-02-28T10:54:17.977Z,605
2017-02-28T10:55:31.074Z,620
2017-02-28T10:56:44.095Z,530
2017-02-28T10:57:57.207Z,460
2017-02-28T10:59:10.149Z,415
2017-02-28T11:00:22.455Z,410
2017-02-28T11:01:35.542Z,425
2017-02-28T11:02:48.274Z,385
2017-02-28T11:04:01.367Z,510
2017-02-28T11:05:14.455Z,755
2017-02-28T11:06:27.551Z,645
2017-02-28T11:07:40.224Z,555
2017-02-28T11:08:52.529Z,425
2017-02-28T11:10:05.590Z,370
2017-02-28T11:11:18.667Z,350
2017-02-28T11:12:31.730Z,470
2017-02-28T11:13:44.438Z,530
2017-02-28T11:14:57.508Z,530
2017-02-28T11:16:10.592Z,490
2017-02-28T11:17:23.275Z,495
2017-02-28T11:18:36.342Z,370
2017-02-28T11:19:49.059Z,505
2017-02-28T11:21:02.005Z,740
2017-02-28T11:22:15.151Z,590
2017-02-28T11:23:28.228Z,535
2017-02-28T11:24:40.546Z,690
2017-02-28T11:25:53.217Z,845
2017-02-28T11:27:06.265Z,825
2017-02-28T11:28:19.309Z,655
2017-02-28T11:29:32.376Z,720
2017-02-28T11:30:45.434Z,775
2017-02-28T11:31:58.572Z,755
2017-02-28T11:33:11.661Z,635
2017-02-28T11:34:24.731Z,640
2017-02-28T11:35:37.788Z,675
2017-02-28T11:36:50.505Z,765
2017-02-28T11:38:03.583Z,745
2017-02-28T11:39:16.649Z,630
2017-02-28T11:40:29.373Z,680
2017-02-28T11:41:41.334Z,845
2017-02-28T11:42:54.035Z,780
2017-02-28T11:44:07.075Z,785
2017-02-28T11:45:19.777Z,840
2017-02-28T11:46:32.865Z,800
2017-02-28T11:47:45.522Z,755
2017-02-28T11:48:58.607Z,575
2017-02-28T11:50:11.677Z,430
2017-02-28T11:51:24.759Z,370
2017-02-28T11:52:37.407Z,420
2017-02-28T11:53:50.490Z,465
2017-02-28T11:55:03.569Z,390
2017-02-28T11:56:16.664Z,290
2017-02-28T11:57:29.785Z,275
2017-02-28T11:58:42.906Z,265
2017-02-28T11:59:55.233Z,350
2017-02-28T12:01:08.278Z,365
2017-02-28T12:02:20.950Z,410
2017-02-28T12:03:34.017Z,300
2017-02-28T12:04:47.107Z,265
2017-02-28T12:05:59.460Z,335
2017-02-28T12:07:12.527Z,305
2017-02-28T12:08:25.574Z,290
2017-02-28T12:09:38.653Z,310
2017-02-28T12:10:51.732Z,280
2017-02-28T12:12:04.832Z,270
2017-02-28T12:13:17.549Z,290
2017-02-28T12:14:30.627Z,285
2017-02-28T12:15:43.698Z,295
2017-02-28T12:16:56.394Z,365
2017-02-28T12:18:09.490Z,470
2017-02-28T12:19:22.636Z,560
2017-02-28T12:20:35.951Z,600
2017-02-28T12:21:48.634Z,610
2017-02-28T12:23:01.719Z,640
2017-02-28T12:24:14.797Z,505
2017-02-28T12:25:27.868Z,395
2017-02-28T12:26:40.542Z,350
2017-02-28T12:27:53.607Z,370
2017-02-28T12:29:06.707Z,395
2017-02-28T12:30:19.382Z,380
2017-02-28T12:31:32.062Z,430
2017-02-28T12:32:45.122Z,560
2017-02-28T12:33:58.190Z,640
2017-02-28T12:35:11.236Z,595
2017-02-28T12:36:24.331Z,530
2017-02-28T12:37:37.434Z,485
2017-02-28T12:38:50.095Z,565
2017-02-28T12:40:03.198Z,650
2017-02-28T12:41:15.891Z,660
2017-02-28T12:42:28.958Z,590
2017-02-28T12:43:42.049Z,560
2017-02-28T12:44:55.132Z,400
2017-02-28T12:46:08.192Z,385
2017-02-28T12:47:20.911Z,465
2017-02-28T12:48:33.605Z,535
2017-02-28T12:49:46.708Z,475
2017-02-28T12:50:59.786Z,435
2017-02-28T12:52:12.503Z,375
2017-02-28T12:53:25.598Z,360
2017-02-28T12:54:37.950Z,405
2017-02-28T12:55:50.665Z,415
2017-02-28T12:57:03.739Z,365
2017-02-28T12:58:16.849Z,320
2017-02-28T12:59:30.280Z,390
2017-02-28T13:00:43.376Z,545
2017-02-28T13:01:56.548Z,530
2017-02-28T13:03:09.663Z,490
2017-02-28T13:04:22.734Z,420
2017-02-28T13:05:35.433Z,415
2017-02-28T13:06:48.543Z,420
2017-02-28T13:08:01.593Z,425
2017-02-28T13:09:14.675Z,420
2017-02-28T13:10:27.730Z,455
2017-02-28T13:11:40.412Z,520
2017-02-28T13:12:53.530Z,520
2017-02-28T13:14:06.222Z,515
2017-02-28T13:15:19.364Z,585
2017-02-28T13:16:32.452Z,575
2017-02-28T13:17:45.141Z,475
2017-02-28T13:18:57.887Z,430
2017-02-28T13:20:10.980Z,400
2017-02-28T13:21:24.326Z,325
2017-02-28T13:22:37.425Z,280
2017-02-28T13:23:50.499Z,280
2017-02-28T13:25:03.172Z,325
2017-02-28T13:26:15.864Z,385
2017-02-28T13:27:28.909Z,365
2017-02-28T13:28:41.972Z,360
2017-02-28T13:29:55.074Z,390
2017-02-28T13:31:08.199Z,420
2017-02-28T13:32:20.884Z,395
2017-02-28T13:33:33.966Z,385
2017-02-28T13:34:46.649Z,380
2017-02-28T13:35:59.719Z,390
2017-02-28T13:37:12.800Z,415
2017-02-28T13:38:25.864Z,400
2017-02-28T13:39:38.944Z,370
2017-02-28T13:40:52.036Z,390
2017-02-28T13:42:05.124Z,445
2017-02-28T13:43:18.178Z,515
2017-02-28T13:44:31.244Z,445
2017-02-28T13:45:44.319Z,320
2017-02-28T13:46:57.390Z,265
2017-02-28T13:48:10.119Z,245
2017-02-28T13:49:22.840Z,240
2017-02-28T13:50:35.928Z,250
2017-02-28T13:51:49.002Z,270
2017-02-28T13:53:01.701Z,260
2017-02-28T13:54:14.782Z,245
2017-02-28T13:55:27.461Z,265
2017-02-28T13:56:40.559Z,325
2017-02-28T13:57:53.253Z,395
2017-02-28T13:59:05.949Z,410
2017-02-28T14:00:19.014Z,405
2017-02-28T14:01:32.066Z,400
2017-02-28T14:02:45.132Z,345
2017-02-28T14:03:58.203Z,300
2017-02-28T14:05:11.308Z,290
2017-02-28T14:06:24.370Z,380
2017-02-28T14:07:37.463Z,475
2017-02-28T14:08:50.518Z,485
2017-02-28T14:10:03.604Z,480
2017-02-28T14:11:16.309Z,455
2017-02-28T14:12:29.374Z,400
2017-02-28T14:13:42.155Z,380
2017-02-28T14:14:55.241Z,380
2017-02-28T14:16:08.296Z,385
2017-02-28T14:17:21.387Z,445
2017-02-28T14:18:34.080Z,495
2017-02-28T14:19:46.825Z,490
2017-02-28T14:20:59.916Z,490
2017-02-28T14:22:12.599Z,470
2017-02-28T14:23:25.701Z,455
2017-02-28T14:24:38.419Z,410
2017-02-28T14:25:51.529Z,370
2017-02-28T14:27:04.632Z,320
2017-02-28T14:28:17.696Z,265
2017-02-28T14:29:30.829Z,225
2017-02-28T14:30:43.517Z,225
2017-02-28T14:31:56.567Z,220
2017-02-28T14:33:09.634Z,195
2017-02-28T14:34:22.758Z,205
2017-02-28T14:35:35.853Z,195
2017-02-28T14:36:48.900Z,215
2017-02-28T14:38:01.967Z,225
2017-02-28T14:39:15.042Z,240
2017-02-28T14:40:28.111Z,240
2017-02-28T14:41:40.801Z,250
2017-02-28T14:42:53.879Z,255
2017-02-28T14:44:06.975Z,250
2017-02-28T14:45:20.088Z,250
2017-02-28T14:46:32.789Z,230
2017-02-28T14:47:45.931Z,220
2017-02-28T14:48:58.635Z,220
2017-02-28T14:50:11.330Z,225
2017-02-28T14:51:24.475Z,240
2017-02-28T14:52:37.522Z,265
2017-02-28T14:53:50.644Z,310
2017-02-28T14:55:03.709Z,330
2017-02-28T14:56:16.803Z,310
2017-02-28T14:57:29.877Z,285
2017-02-28T14:58:42.967Z,260
2017-02-28T14:59:56.038Z,240
2017-02-28T15:01:08.743Z,225
2017-02-28T15:02:21.438Z,220
2017-02-28T15:03:34.582Z,210
2017-02-28T15:04:47.671Z,205
2017-02-28T15:06:00.749Z,210
2017-02-28T15:07:13.843Z,230
2017-02-28T15:08:26.909Z,265
2017-02-28T15:09:39.986Z,295
2017-02-28T15:10:53.089Z,290
2017-02-28T15:12:05.803Z,260
2017-02-28T15:13:18.492Z,230
2017-02-28T15:14:31.199Z,225
2017-02-28T15:15:44.318Z,230
2017-02-28T15:16:57.385Z,245
2017-02-28T15:18:10.077Z,250
2017-02-28T15:19:23.143Z,240
2017-02-28T15:20:36.226Z,220
2017-02-28T15:21:49.374Z,220
2017-02-28T15:23:02.442Z,220
2017-02-28T15:24:15.539Z,225
2017-02-28T15:25:28.631Z,230
2017-02-28T15:26:41.709Z,245
2017-02-28T15:27:54.818Z,245
2017-02-28T15:29:07.548Z,215
2017-02-28T15:30:20.643Z,180
2017-02-28T15:31:33.688Z,150
2017-02-28T15:32:46.008Z,130
2017-02-28T15:33:59.072Z,135
2017-02-28T15:35:12.196Z,135
2017-02-28T15:36:24.914Z,135
2017-02-28T15:37:37.998Z,135
2017-02-28T15:38:49.963Z,145
2017-02-28T15:40:03.056Z,160
2017-02-28T15:41:16.119Z,160
2017-02-28T15:42:28.849Z,160
2017-02-28T15:43:41.947Z,165
2017-02-28T15:44:55.041Z,170
2017-02-28T15:46:07.780Z,170
2017-02-28T15:47:20.480Z,175
2017-02-28T15:48:33.556Z,165
2017-02-28T15:49:46.680Z,145
2017-02-28T15:50:59.735Z,120
2017-02-28T15:52:11.656Z,110
2017-02-28T15:53:24.762Z,105
2017-02-28T15:54:37.877Z,100
2017-02-28T15:55:50.954Z,95
2017-02-28T15:57:04.094Z,90
2017-02-28T15:58:17.160Z,85
2017-02-28T15:59:30.232Z,80
2017-02-28T16:00:43.310Z,80
2017-02-28T16:01:56.386Z,85
2017-02-28T16:03:09.052Z,80
2017-02-28T16:04:22.126Z,80
2017-02-28T16:05:35.189Z,80
2017-02-28T16:06:47.869Z,80
2017-02-28T16:08:00.935Z,75
2017-02-28T16:09:13.987Z,75
2017-02-28T16:10:27.129Z,70
2017-02-28T16:11:40.172Z,65
2017-02-28T16:12:52.874Z,60
2017-02-28T16:14:05.925Z,60
2017-02-28T16:15:18.641Z,60
2017-02-28T16:16:31.360Z,55
2017-02-28T16:17:44.035Z,50
2017-02-28T16:18:57.106Z,45
2017-02-28T16:20:10.197Z,45
2017-02-28T16:21:23.237Z,45
2017-02-28T16:22:35.914Z,45
2017-02-28T16:23:48.961Z,45
2017-02-28T16:25:02.023Z,40
2017-02-28T16:26:14.327Z,40
2017-02-28T16:27:27.398Z,35
2017-02-28T16:28:40.466Z,30
2017-02-28T16:29:53.507Z,30
2017-02-28T16:31:06.578Z,25
2017-02-28T16:32:19.653Z,20
2017-02-28T16:33:32.715Z,20
2017-02-28T16:34:45.787Z,20
2017-02-28T16:35:58.844Z,15
2017-02-28T16:37:11.891Z,15
2017-02-28T16:38:24.953Z,10
2017-02-28T16:39:38.056Z,10
2017-02-28T16:40:51.178Z,10
2017-02-28T16:42:04.249Z,10
2017-02-28T16:43:17.370Z,10
2017-02-28T16:44:30.462Z,10
2017-02-28T16:45:43.167Z,10
2017-02-28T16:46:55.859Z,5
2017-02-28T16:48:08.917Z,5
2017-02-28T16:49:21.973Z,5
2017-02-28T16:50:34.659Z,5
2017-02-28T16:51:47.761Z,5
2017-02-28T16:53:00.837Z,0
2017-02-28T16:54:13.522Z,0
2017-02-28T16:55:26.579Z,0
2017-02-28T16:56:39.649Z,0
2017-02-28T16:57:52.738Z,0
2017-02-28T16:59:05.816Z,0
2017-02-28T17:00:18.884Z,0
2017-02-28T17:01:31.535Z,0
2017-02-28T17:02:44.628Z,0
2017-02-28T17:03:57.696Z,0
2017-02-28T17:05:10.770Z,0
2017-02-28T17:06:23.489Z,0
2017-02-28T17:07:36.164Z,0
2017-02-28T17:08:49.301Z,0
2017-02-28T17:10:02.437Z,0
2017-02-28T17:11:15.513Z,0
2017-02-28T17:12:28.198Z,0
2017-02-28T17:13:40.856Z,0
2017-02-28T17:14:53.927Z,0